Time;durP1;ratioP1;P1;durP2;ratioP2;P2;SDS_P1;SDS_P2;PMS_P1;PMS_P2;Temp;Humidity;BMP_temperature;BMP_pressure;BME280_temperature;BME280_humidity;BME280_pressure;Samples;Min_cycle;Max_cycle;Signal;HPM_P1;HPM_P2
2022/09/13 00:02:01;;;;;;;;;;;;;;;9.54;100.00;98846.50;105009;1271;62021;-70
2022/09/13 00:04:27;;;;;;;;;;;;;;;9.53;100.00;98844.09;105024;1271;62102;-71
2022/09/13 00:06:52;;;;;;;;;;;;;;;9.52;100.00;98844.70;104957;1271;76683;-69
2022/09/13 00:09:18;;;;;;;;;;;;;;;9.52;100.00;98842.04;104966;1271;62102;-70
2022/09/13 00:11:44;;;;;;;;;;;;;;;9.51;100.00;98837.31;104854;1271;62159;-70
2022/09/13 00:14:11;;;;;;;;;;;;;;;9.50;100.00;98836.15;105007;1271;62098;-70
2022/09/13 00:16:36;;;;;;;;;;;;;;;9.48;100.00;98834.87;104992;1271;62184;-70
2022/09/13 00:19:03;;;;;;;;;;;;;;;9.44;100.00;98837.02;104973;1271;62098;-70
2022/09/13 00:21:29;;;;;;;;;;;;;;;9.41;100.00;98837.02;104962;1271;62210;-69
2022/09/13 00:23:55;;;;;;;;;;;;;;;9.37;100.00;98834.46;105014;1271;62550;-71
2022/09/13 00:26:24;;;;;;;;;;;;;;;9.34;100.00;98830.98;105001;1271;62174;-69
2022/09/13 00:28:54;;;;;;;;;;;;;;;9.31;100.00;98833.31;105006;1271;62099;-70
2022/09/13 00:31:22;;;;;;;;;;;;;;;9.28;100.00;98829.94;105034;1271;77376;-70
2022/09/13 00:33:49;;;;;;;;;;;;;;;9.25;100.00;98828.36;105002;1271;70708;-69
2022/09/13 00:36:15;;;;;;;;;;;;;;;9.22;100.00;98827.62;104999;1271;63634;-70
2022/09/13 00:38:42;;;;;;;;;;;;;;;9.20;100.00;98825.11;104997;1271;62169;-70
2022/09/13 00:41:13;;;;;;;;;;;;;;;9.18;100.00;98822.41;105126;1271;62133;-70
2022/09/13 00:43:50;;;;;;;;;;;;;;;9.16;100.00;98821.83;104792;1271;77446;-69
2022/09/13 00:46:35;;;;;;;;;;;;;;;9.16;100.00;98819.36;105229;1271;69413;-69
2022/09/13 00:49:16;;;;;;;;;;;;;;;9.16;100.00;98821.80;104997;1271;73656;-69
2022/09/13 00:51:45;;;;;;;;;;;;;;;9.17;100.00;98819.32;105004;1271;62004;-70
2022/09/13 00:54:12;;;;;;;;;;;;;;;9.15;100.00;98819.09;105064;1271;62074;-70
2022/09/13 00:56:40;;;;;;;;;;;;;;;9.11;100.00;98817.86;104983;1271;77403;-70
2022/09/13 00:59:09;;;;;;;;;;;;;;;9.08;100.00;98816.47;105012;1271;66645;-70
2022/09/13 01:01:39;;;;;;;;;;;;;;;9.04;100.00;98821.00;104999;1271;74626;-70
2022/09/13 01:04:05;;;;;;;;;;;;;;;9.00;100.00;98820.35;104997;1271;62072;-71
2022/09/13 01:06:34;;;;;;;;;;;;;;;8.97;100.00;98819.50;104988;1271;62148;-71
2022/09/13 01:09:04;;;;;;;;;;;;;;;8.94;100.00;98821.64;105012;1271;77163;-70
2022/09/13 01:11:41;;;;;;;;;;;;;;;8.90;100.00;98822.02;105019;1271;69969;-70
2022/09/13 01:14:08;;;;;;;;;;;;;;;8.87;100.00;98825.27;104995;1271;73631;-70
2022/09/13 01:16:34;;;;;;;;;;;;;;;8.84;100.00;98826.00;104961;1271;62114;-70
2022/09/13 01:19:00;;;;;;;;;;;;;;;8.80;100.00;98827.11;105023;1271;62138;-71
2022/09/13 01:21:26;;;;;;;;;;;;;;;8.77;100.00;98830.45;105024;1271;62101;-71
2022/09/13 01:24:11;;;;;;;;;;;;;;;8.74;100.00;98830.47;104939;1271;62122;-71
2022/09/13 01:26:48;;;;;;;;;;;;;;;8.71;100.00;98827.30;104959;1271;73606;-70
2022/09/13 01:29:22;;;;;;;;;;;;;;;8.67;100.00;98824.89;105004;1271;62155;-69
2022/09/13 01:31:53;;;;;;;;;;;;;;;8.64;100.00;98825.61;105022;1271;62029;-69
2022/09/13 01:34:38;;;;;;;;;;;;;;;8.61;100.00;98823.31;105012;1271;77294;-70
2022/09/13 01:37:31;;;;;;;;;;;;;;;8.58;100.00;98822.46;104994;1271;70460;-69
2022/09/13 01:40:04;;;;;;;;;;;;;;;8.54;100.00;98819.48;104991;1271;73614;-71
2022/09/13 01:42:53;;;;;;;;;;;;;;;8.52;100.00;98816.29;104950;1271;62098;-69
2022/09/13 01:45:28;;;;;;;;;;;;;;;8.48;100.00;98817.73;105025;1271;61920;-70
2022/09/13 01:48:06;;;;;;;;;;;;;;;8.44;100.00;98816.91;104985;1271;76109;-70
2022/09/13 01:50:38;;;;;;;;;;;;;;;8.39;100.00;98817.40;105012;1271;68917;-70
2022/09/13 01:53:03;;;;;;;;;;;;;;;8.37;100.00;98811.67;105014;1271;73598;-71
2022/09/13 01:55:34;;;;;;;;;;;;;;;8.35;100.00;98806.83;105028;1271;62085;-71
2022/09/13 01:58:03;;;;;;;;;;;;;;;8.34;100.00;98808.13;105053;1271;62078;-70
2022/09/13 02:00:48;;;;;;;;;;;;;;;8.34;100.00;98812.38;104998;1271;76167;-71
2022/09/13 02:03:18;;;;;;;;;;;;;;;8.33;100.00;98804.44;105011;1271;70224;-69
2022/09/13 02:05:56;;;;;;;;;;;;;;;8.33;100.00;98801.65;105026;1271;73418;-71
2022/09/13 02:08:24;;;;;;;;;;;;;;;8.33;100.00;98797.92;104951;1271;62504;-71
2022/09/13 02:10:55;;;;;;;;;;;;;;;8.32;100.00;98795.70;104981;1271;61968;-70
2022/09/13 02:13:24;;;;;;;;;;;;;;;8.30;100.00;98794.05;104949;1271;77245;-71
2022/09/13 02:15:59;;;;;;;;;;;;;;;8.27;100.00;98792.42;104979;1271;70238;-70
2022/09/13 02:18:25;;;;;;;;;;;;;;;8.24;100.00;98795.45;104966;1271;74590;-70
2022/09/13 02:20:54;;;;;;;;;;;;;;;8.21;100.00;98790.30;104903;1271;62100;-70
2022/09/13 02:23:27;;;;;;;;;;;;;;;8.18;100.00;98785.41;105178;1271;62117;-70
2022/09/13 02:25:55;;;;;;;;;;;;;;;8.14;100.00;98784.22;105016;1271;76252;-70
2022/09/13 02:28:26;;;;;;;;;;;;;;;8.11;100.00;98784.92;105227;1271;70366;-70
2022/09/13 02:30:53;;;;;;;;;;;;;;;8.09;100.00;98776.20;105215;1271;73541;-70
2022/09/13 02:33:19;;;;;;;;;;;;;;;8.07;100.00;98777.36;105340;1271;62110;-69
2022/09/13 02:35:50;;;;;;;;;;;;;;;8.05;100.00;98775.16;105105;1271;62163;-70
2022/09/13 02:38:20;;;;;;;;;;;;;;;8.04;100.00;98777.58;104972;1271;75235;-69
2022/09/13 02:40:52;;;;;;;;;;;;;;;8.02;100.00;98773.92;105020;1271;69265;-69
2022/09/13 02:43:21;;;;;;;;;;;;;;;8.00;100.00;98768.92;104970;1271;73492;-70
2022/09/13 02:45:51;;;;;;;;;;;;;;;8.00;100.00;98765.07;104998;1271;62139;-71
2022/09/13 02:48:26;;;;;;;;;;;;;;;7.99;100.00;98761.41;104999;1271;62101;-69
2022/09/13 02:51:01;;;;;;;;;;;;;;;7.99;100.00;98761.08;104964;1271;77468;-72
2022/09/13 02:53:49;;;;;;;;;;;;;;;7.99;100.00;98758.23;105018;1271;69400;-70
2022/09/13 02:56:18;;;;;;;;;;;;;;;7.99;100.00;98753.25;104752;1272;73847;-70
2022/09/13 02:58:49;;;;;;;;;;;;;;;8.00;100.00;98754.98;105005;1271;62213;-71
2022/09/13 03:01:15;;;;;;;;;;;;;;;7.98;100.00;98753.70;105020;1271;62062;-70
2022/09/13 03:03:43;;;;;;;;;;;;;;;7.94;100.00;98755.34;104714;1271;62181;-70
2022/09/13 03:06:09;;;;;;;;;;;;;;;7.90;100.00;98752.20;105091;1271;69669;-70
2022/09/13 03:08:36;;;;;;;;;;;;;;;7.86;100.00;98750.66;105031;1271;62225;-71
2022/09/13 03:11:11;;;;;;;;;;;;;;;7.82;100.00;98749.29;104986;1271;62203;-70
2022/09/13 03:13:55;;;;;;;;;;;;;;;7.80;100.00;98750.15;105019;1271;62149;-69
2022/09/13 03:16:27;;;;;;;;;;;;;;;7.78;100.00;98743.73;104989;1271;75914;-70
2022/09/13 03:19:05;;;;;;;;;;;;;;;7.76;100.00;98746.33;105016;1271;69417;-70
2022/09/13 03:21:46;;;;;;;;;;;;;;;7.74;100.00;98748.59;104871;1272;74494;-70
2022/09/13 03:24:15;;;;;;;;;;;;;;;7.71;100.00;98752.25;104968;1271;62104;-70
2022/09/13 03:26:51;;;;;;;;;;;;;;;7.69;100.00;98751.16;105053;1271;62084;-70
2022/09/13 03:29:28;;;;;;;;;;;;;;;7.69;100.00;98749.74;104995;1271;76125;-70
2022/09/13 03:32:09;;;;;;;;;;;;;;;7.69;100.00;98746.77;105026;1271;70384;-70
2022/09/13 03:34:54;;;;;;;;;;;;;;;7.68;100.00;98736.37;105015;1271;73285;-70
2022/09/13 03:37:34;;;;;;;;;;;;;;;7.65;100.00;98739.52;105004;1271;62046;-70
2022/09/13 03:40:04;;;;;;;;;;;;;;;7.63;100.00;98737.35;105036;1271;62084;-71
2022/09/13 03:42:40;;;;;;;;;;;;;;;7.59;100.00;98738.29;105029;1271;75623;-70
2022/09/13 03:45:08;;;;;;;;;;;;;;;7.54;100.00;98736.29;105051;1271;69355;-70
2022/09/13 03:47:35;;;;;;;;;;;;;;;7.51;100.00;98738.08;105036;1271;73335;-70
2022/09/13 03:50:03;;;;;;;;;;;;;;;7.47;100.00;98734.58;105155;1271;62104;-70
2022/09/13 03:52:29;;;;;;;;;;;;;;;7.44;100.00;98733.20;105058;1271;61983;-70
2022/09/13 03:54:56;;;;;;;;;;;;;;;7.44;100.00;98731.75;104918;1272;62219;-69
2022/09/13 03:57:22;;;;;;;;;;;;;;;7.45;100.00;98732.95;105030;1271;70366;-69
2022/09/13 03:59:53;;;;;;;;;;;;;;;7.46;100.00;98739.08;105034;1271;62159;-69
2022/09/13 04:02:22;;;;;;;;;;;;;;;7.46;100.00;98738.86;105019;1271;62144;-70
2022/09/13 04:04:48;;;;;;;;;;;;;;;7.45;100.00;98734.87;105223;1271;62423;-70
2022/09/13 04:07:16;;;;;;;;;;;;;;;7.43;100.00;98736.55;105028;1271;62183;-70
2022/09/13 04:09:42;;;;;;;;;;;;;;;7.42;100.00;98736.45;105111;1271;69201;-70
2022/09/13 04:12:13;;;;;;;;;;;;;;;7.41;100.00;98731.40;105033;1271;62033;-69
2022/09/13 04:14:39;;;;;;;;;;;;;;;7.40;100.00;98730.95;104756;1271;62197;-69
2022/09/13 04:17:06;;;;;;;;;;;;;;;7.38;100.00;98729.11;105056;1271;61964;-69
2022/09/13 04:19:32;;;;;;;;;;;;;;;7.36;100.00;98733.26;105039;1271;76700;-70
2022/09/13 04:21:58;;;;;;;;;;;;;;;7.35;100.00;98730.34;105042;1271;62108;-70
2022/09/13 04:24:26;;;;;;;;;;;;;;;7.34;100.00;98732.55;104993;1271;62521;-70
2022/09/13 04:26:55;;;;;;;;;;;;;;;7.32;100.00;98734.58;105119;1271;62474;-70
2022/09/13 04:29:22;;;;;;;;;;;;;;;7.33;100.00;98732.41;105038;1271;62161;-70
2022/09/13 04:31:49;;;;;;;;;;;;;;;7.33;100.00;98733.98;105005;1271;74924;-70
2022/09/13 04:34:17;;;;;;;;;;;;;;;7.33;100.00;98731.72;105098;1271;70286;-70
2022/09/13 04:36:43;;;;;;;;;;;;;;;7.34;100.00;98733.91;105051;1271;73378;-70
2022/09/13 04:39:12;;;;;;;;;;;;;;;7.38;100.00;98730.16;105035;1271;62199;-70
2022/09/13 04:41:39;;;;;;;;;;;;;;;7.45;100.00;98734.18;104961;1271;61955;-70
2022/09/13 04:44:06;;;;;;;;;;;;;;;7.51;100.00;98734.23;104800;1272;77228;-70
2022/09/13 04:46:31;;;;;;;;;;;;;;;7.59;100.00;98731.79;105022;1271;62244;-70
2022/09/13 04:48:57;;;;;;;;;;;;;;;7.67;100.00;98728.96;105013;1271;62108;-70
2022/09/13 04:51:24;;;;;;;;;;;;;;;7.86;100.00;98729.45;105037;1271;62081;-70
2022/09/13 04:53:54;;;;;;;;;;;;;;;8.16;100.00;98728.19;105036;1271;62105;-69
2022/09/13 04:56:23;;;;;;;;;;;;;;;8.42;100.00;98728.02;104985;1271;76200;-70
2022/09/13 04:58:50;;;;;;;;;;;;;;;8.71;100.00;98728.33;105049;1271;70204;-70
2022/09/13 05:01:16;;;;;;;;;;;;;;;9.02;100.00;98728.11;105038;1271;73744;-70
2022/09/13 05:03:42;;;;;;;;;;;;;;;9.28;100.00;98723.72;104999;1271;62137;-70
2022/09/13 05:06:09;;;;;;;;;;;;;;;9.56;100.00;98721.31;105096;1271;62193;-70
2022/09/13 05:08:35;;;;;;;;;;;;;;;9.68;100.00;98722.68;104827;1271;62172;-71
2022/09/13 05:11:01;;;;;;;;;;;;;;;9.93;100.00;98718.98;104891;1271;62211;-71
2022/09/13 05:13:28;;;;;;;;;;;;;;;10.32;100.00;98717.52;105009;1271;62098;-71
2022/09/13 05:15:55;;;;;;;;;;;;;;;10.68;100.00;98717.48;105127;1271;62171;-69
2022/09/13 05:18:24;;;;;;;;;;;;;;;10.94;100.00;98713.83;105127;1271;62085;-70
2022/09/13 05:20:56;;;;;;;;;;;;;;;11.24;100.00;98714.48;105086;1271;76243;-70
2022/09/13 05:23:22;;;;;;;;;;;;;;;11.51;100.00;98717.10;104900;1271;68902;-70
2022/09/13 05:25:52;;;;;;;;;;;;;;;11.75;100.00;98718.64;104956;1271;62104;-70
2022/09/13 05:28:19;;;;;;;;;;;;;;;11.99;100.00;98714.86;105016;1271;62051;-71
2022/09/13 05:30:53;;;;;;;;;;;;;;;12.20;100.00;98715.74;105060;1271;62022;-71
2022/09/13 05:33:18;;;;;;;;;;;;;;;12.50;100.00;98721.05;105032;1271;77340;-71
2022/09/13 05:35:45;;;;;;;;;;;;;;;12.74;100.00;98718.98;105116;1271;62010;-70
2022/09/13 05:38:10;;;;;;;;;;;;;;;12.97;100.00;98719.47;105061;1271;62172;-72
2022/09/13 05:40:36;;;;;;;;;;;;;;;13.16;100.00;98719.67;104955;1271;62181;-70
2022/09/13 05:43:03;;;;;;;;;;;;;;;13.37;100.00;98719.38;104789;1271;62181;-71
2022/09/13 05:45:29;;;;;;;;;;;;;;;13.61;100.00;98720.44;104994;1271;62069;-71
2022/09/13 05:47:55;;;;;;;;;;;;;;;13.92;100.00;98715.16;105014;1271;62188;-70
2022/09/13 05:50:21;;;;;;;;;;;;;;;14.32;100.00;98711.02;105006;1271;62197;-71
2022/09/13 05:52:51;;;;;;;;;;;;;;;14.50;100.00;98713.58;105004;1271;62078;-71
2022/09/13 05:55:17;;;;;;;;;;;;;;;14.65;100.00;98712.02;105108;1271;62008;-71
2022/09/13 05:57:44;;;;;;;;;;;;;;;14.75;100.00;98712.95;104865;1271;62313;-71
2022/09/13 06:00:11;;;;;;;;;;;;;;;14.88;100.00;98719.11;105068;1271;62188;-71
2022/09/13 06:02:36;;;;;;;;;;;;;;;15.14;100.00;98716.60;105016;1271;62441;-71
2022/09/13 06:05:04;;;;;;;;;;;;;;;15.38;100.00;98711.98;104984;1271;62196;-71
2022/09/13 06:07:30;;;;;;;;;;;;;;;15.46;100.00;98713.22;104994;1271;62192;-70
2022/09/13 06:09:56;;;;;;;;;;;;;;;15.45;100.00;98710.95;105047;1271;62185;-70
2022/09/13 06:12:23;;;;;;;;;;;;;;;15.43;100.00;98707.09;105066;1271;62089;-70
2022/09/13 06:14:49;;;;;;;;;;;;;;;15.42;100.00;98708.02;105093;1271;73433;-70
2022/09/13 06:17:15;;;;;;;;;;;;;;;15.36;100.00;98707.61;105037;1271;62232;-72
2022/09/13 06:19:41;;;;;;;;;;;;;;;15.38;100.00;98709.82;105014;1271;62404;-71
2022/09/13 06:22:07;;;;;;;;;;;;;;;15.43;100.00;98708.31;103847;1271;1621480;-72
2022/09/13 06:24:36;;;;;;;;;;;;;;;15.33;100.00;98707.22;105045;1271;62196;-70
2022/09/13 06:27:02;;;;;;;;;;;;;;;15.16;100.00;98709.17;105067;1271;62155;-69
2022/09/13 06:29:28;;;;;;;;;;;;;;;15.08;100.00;98707.55;105088;1271;62124;-71
2022/09/13 06:31:54;;;;;;;;;;;;;;;15.09;100.00;98709.41;105030;1271;62099;-70
2022/09/13 06:34:20;;;;;;;;;;;;;;;15.01;100.00;98712.61;105203;1271;62198;-71
2022/09/13 06:36:46;;;;;;;;;;;;;;;15.00;100.00;98716.70;105066;1271;62199;-70
2022/09/13 06:39:13;;;;;;;;;;;;;;;15.06;100.00;98718.47;105042;1271;62125;-70
2022/09/13 06:41:39;;;;;;;;;;;;;;;15.04;100.00;98720.59;104992;1271;62053;-70
2022/09/13 06:44:05;;;;;;;;;;;;;;;15.01;100.00;98724.59;105019;1271;62859;-71
2022/09/13 06:46:33;;;;;;;;;;;;;;;14.99;100.00;98729.67;105015;1271;62241;-74
2022/09/13 06:49:01;;;;;;;;;;;;;;;15.02;100.00;98730.27;105044;1271;62288;-71
2022/09/13 06:51:31;;;;;;;;;;;;;;;15.00;100.00;98728.60;105110;1271;73846;-71
2022/09/13 06:53:57;;;;;;;;;;;;;;;14.96;100.00;98723.48;105029;1271;62112;-71
2022/09/13 06:56:25;;;;;;;;;;;;;;;14.86;100.00;98722.88;105053;1271;62158;-71
2022/09/13 06:58:55;;;;;;;;;;;;;;;14.82;100.00;98719.31;105015;1271;77218;-70
2022/09/13 07:01:22;;;;;;;;;;;;;;;14.91;100.00;98717.42;105023;1271;69419;-69
2022/09/13 07:03:53;;;;;;;;;;;;;;;15.07;100.00;98719.27;104913;1271;74422;-70
2022/09/13 07:06:20;;;;;;;;;;;;;;;15.24;100.00;98714.80;105049;1271;62088;-68
2022/09/13 07:08:47;;;;;;;;;;;;;;;15.35;100.00;98710.27;105034;1271;62097;-70
2022/09/13 07:11:15;;;;;;;;;;;;;;;15.43;100.00;98707.23;105113;1271;76177;-68
2022/09/13 07:13:41;;;;;;;;;;;;;;;15.48;100.00;98703.87;105021;1271;69584;-70
2022/09/13 07:16:09;;;;;;;;;;;;;;;15.57;100.00;98696.23;105049;1271;62166;-71
2022/09/13 07:18:36;;;;;;;;;;;;;;;15.66;100.00;98691.62;105069;1271;62066;-71
2022/09/13 07:21:03;;;;;;;;;;;;;;;15.78;100.00;98693.42;105067;1271;62235;-71
2022/09/13 07:23:30;;;;;;;;;;;;;;;15.88;100.00;98692.14;105087;1271;76440;-69
2022/09/13 07:26:00;;;;;;;;;;;;;;;15.95;100.00;98688.23;105183;1271;69684;-71
2022/09/13 07:28:29;;;;;;;;;;;;;;;16.01;100.00;98691.13;105146;1271;73475;-70
2022/09/13 07:30:57;;;;;;;;;;;;;;;16.10;100.00;98692.54;105127;1271;62061;-71
2022/09/13 07:33:25;;;;;;;;;;;;;;;16.25;100.00;98695.85;105199;1270;62167;-71
2022/09/13 07:35:54;;;;;;;;;;;;;;;16.40;100.00;98692.61;105193;1270;76373;-70
2022/09/13 07:38:21;;;;;;;;;;;;;;;16.57;100.00;98686.30;105129;1270;70433;-72
2022/09/13 07:40:54;;;;;;;;;;;;;;;16.72;100.00;98689.75;105084;1270;62154;-70
2022/09/13 07:43:20;;;;;;;;;;;;;;;16.81;100.00;98691.85;105122;1270;62123;-70
2022/09/13 07:45:47;;;;;;;;;;;;;;;16.84;100.00;98690.30;105106;1270;62116;-70
2022/09/13 07:48:13;;;;;;;;;;;;;;;16.83;100.00;98691.09;105130;1270;61941;-71
2022/09/13 07:50:39;;;;;;;;;;;;;;;16.79;100.00;98686.02;105125;1270;62184;-71
2022/09/13 07:53:06;;;;;;;;;;;;;;;16.82;100.00;98685.52;105102;1268;62179;-70
2022/09/13 07:55:31;;;;;;;;;;;;;;;16.80;100.00;98681.02;105156;1270;61919;-71
2022/09/13 07:57:58;;;;;;;;;;;;;;;16.84;100.00;98681.07;105127;1270;62129;-70
2022/09/13 08:00:24;;;;;;;;;;;;;;;16.83;100.00;98675.74;105124;1270;62098;-71
2022/09/13 08:02:51;;;;;;;;;;;;;;;16.82;100.00;98674.36;105106;1270;62161;-70
2022/09/13 08:05:17;;;;;;;;;;;;;;;16.85;100.00;98676.59;105083;1268;63558;-70
2022/09/13 08:07:43;;;;;;;;;;;;;;;16.95;100.00;98673.86;105024;1270;62154;-70
2022/09/13 08:10:09;;;;;;;;;;;;;;;17.00;100.00;98673.52;105158;1270;62083;-70
2022/09/13 08:12:35;;;;;;;;;;;;;;;17.00;100.00;98671.36;105151;1270;62178;-70
2022/09/13 08:15:06;;;;;;;;;;;;;;;17.05;100.00;98666.74;105106;1270;73248;-70
2022/09/13 08:17:32;;;;;;;;;;;;;;;17.14;100.00;98669.51;105128;1268;61944;-69
2022/09/13 08:19:57;;;;;;;;;;;;;;;17.27;100.00;98666.36;105126;1270;62167;-70
2022/09/13 08:22:24;;;;;;;;;;;;;;;17.39;100.00;98663.04;105117;1270;62167;-70
2022/09/13 08:24:50;;;;;;;;;;;;;;;17.50;100.00;98666.21;104908;1271;62123;-70
2022/09/13 08:27:15;;;;;;;;;;;;;;;17.65;100.00;98666.69;105102;1270;62170;-70
2022/09/13 08:29:42;;;;;;;;;;;;;;;17.76;100.00;98668.19;104984;1270;62197;-69
2022/09/13 08:32:08;;;;;;;;;;;;;;;17.79;100.00;98667.23;105122;1270;62066;-71
2022/09/13 08:34:33;;;;;;;;;;;;;;;17.83;100.00;98664.66;105177;1270;62098;-71
2022/09/13 08:37:00;;;;;;;;;;;;;;;17.97;100.00;98666.18;105136;1270;74557;-69
2022/09/13 08:39:26;;;;;;;;;;;;;;;18.12;100.00;98664.73;105099;1270;62404;-70
2022/09/13 08:41:59;;;;;;;;;;;;;;;18.29;100.00;98665.50;105106;1270;62666;-70
2022/09/13 08:44:29;;;;;;;;;;;;;;;18.43;100.00;98663.17;105126;1270;76196;-71
2022/09/13 08:47:18;;;;;;;;;;;;;;;18.58;100.00;98656.02;105076;1270;70566;-71
2022/09/13 08:49:46;;;;;;;;;;;;;;;18.76;100.00;98656.77;105108;1270;73399;-70
2022/09/13 08:52:23;;;;;;;;;;;;;;;18.83;100.00;98654.46;105150;1270;62161;-72
2022/09/13 08:54:50;;;;;;;;;;;;;;;18.87;100.00;98654.73;105137;1270;62099;-72
2022/09/13 08:57:31;;;;;;;;;;;;;;;18.93;100.00;98648.84;105165;1270;76195;-71
2022/09/13 09:00:02;;;;;;;;;;;;;;;19.10;100.00;98647.46;105110;1270;70833;-71
2022/09/13 09:02:31;;;;;;;;;;;;;;;19.34;100.00;98638.19;105208;1269;73588;-71
2022/09/13 09:05:03;;;;;;;;;;;;;;;19.48;100.00;98637.66;105085;1270;62189;-71
2022/09/13 09:07:34;;;;;;;;;;;;;;;19.66;100.00;98635.17;105109;1270;62041;-70
2022/09/13 09:10:00;;;;;;;;;;;;;;;19.81;100.00;98633.41;105092;1270;76100;-70
2022/09/13 09:12:33;;;;;;;;;;;;;;;19.89;100.00;98627.80;105070;1270;62162;-70
2022/09/13 09:15:20;;;;;;;;;;;;;;;19.94;100.00;98627.95;105117;1270;73369;-70
2022/09/13 09:17:51;;;;;;;;;;;;;;;20.02;100.00;98623.99;104462;1278;62163;-70
2022/09/13 09:20:22;;;;;;;;;;;;;;;20.12;100.00;98630.13;104465;1277;62084;-70
2022/09/13 09:22:49;;;;;;;;;;;;;;;20.24;100.00;98629.48;104494;1277;76232;-70
2022/09/13 09:25:15;;;;;;;;;;;;;;;20.35;100.00;98623.67;104520;1277;69512;-70
2022/09/13 09:27:42;;;;;;;;;;;;;;;20.44;100.00;98623.06;104511;1278;62173;-71
2022/09/13 09:30:15;;;;;;;;;;;;;;;20.52;100.00;98625.40;104472;1278;62301;-71
2022/09/13 09:33:00;;;;;;;;;;;;;;;20.60;100.00;98626.41;104524;1277;62314;-71
2022/09/13 09:35:45;;;;;;;;;;;;;;;20.53;100.00;98621.49;104510;1279;76495;-71
2022/09/13 09:38:13;;;;;;;;;;;;;;;20.35;100.00;98612.67;104491;1278;68869;-71
2022/09/13 09:40:39;;;;;;;;;;;;;;;20.32;100.00;98614.48;104509;1278;73491;-71
2022/09/13 09:43:18;;;;;;;;;;;;;;;20.35;100.00;98612.63;104492;1278;62250;-70
2022/09/13 09:45:45;;;;;;;;;;;;;;;20.32;100.00;98609.23;104511;1278;62323;-71
2022/09/13 09:48:15;;;;;;;;;;;;;;;20.37;100.00;98608.13;104520;1278;77442;-71
2022/09/13 09:50:46;;;;;;;;;;;;;;;20.50;100.00;98605.63;104513;1278;69520;-70
2022/09/13 09:53:18;;;;;;;;;;;;;;;20.68;100.00;98607.89;104551;1278;72726;-71
2022/09/13 09:55:45;;;;;;;;;;;;;;;20.74;100.00;98599.95;104848;1270;62145;-71
2022/09/13 09:58:15;;;;;;;;;;;;;;;20.79;100.00;98595.42;105102;1269;63426;-69
2022/09/13 10:00:52;;;;;;;;;;;;;;;20.90;100.00;98588.63;105178;1270;77725;-70
2022/09/13 10:03:20;;;;;;;;;;;;;;;20.84;100.00;98589.73;105088;1270;70554;-70
2022/09/13 10:05:48;;;;;;;;;;;;;;;20.89;100.00;98590.27;105065;1270;74478;-70
2022/09/13 10:08:25;;;;;;;;;;;;;;;20.98;100.00;98583.65;104966;1270;62079;-70
2022/09/13 10:10:52;;;;;;;;;;;;;;;21.15;100.00;98578.60;105115;1270;62166;-70
2022/09/13 10:13:21;;;;;;;;;;;;;;;21.17;100.00;98577.21;105099;1270;76274;-69
2022/09/13 10:16:04;;;;;;;;;;;;;;;21.13;100.00;98566.89;105074;1270;70711;-70
2022/09/13 10:18:34;;;;;;;;;;;;;;;21.19;100.00;98565.48;105125;1270;73388;-70
2022/09/13 10:21:05;;;;;;;;;;;;;;;21.37;100.00;98565.52;104970;1270;62229;-71
2022/09/13 10:23:32;;;;;;;;;;;;;;;21.59;100.00;98563.48;105022;1270;62041;-70
2022/09/13 10:26:01;;;;;;;;;;;;;;;21.79;100.00;98564.66;105101;1270;61945;-72
2022/09/13 10:28:29;;;;;;;;;;;;;;;21.94;100.00;98566.39;104981;1270;70634;-71
2022/09/13 10:31:09;;;;;;;;;;;;;;;22.01;100.00;98571.21;105136;1270;74593;-71
2022/09/13 10:33:38;;;;;;;;;;;;;;;22.06;100.00;98565.42;105115;1270;62055;-72
2022/09/13 10:36:13;;;;;;;;;;;;;;;22.12;100.00;98562.64;105139;1270;61977;-71
2022/09/13 10:38:40;;;;;;;;;;;;;;;22.11;100.00;98560.91;105144;1270;77451;-70
2022/09/13 10:41:10;;;;;;;;;;;;;;;22.09;100.00;98562.26;105110;1270;69536;-71
2022/09/13 10:43:37;;;;;;;;;;;;;;;22.06;100.00;98558.16;105076;1270;73517;-72
2022/09/13 10:46:04;;;;;;;;;;;;;;;22.09;100.00;98559.91;105120;1270;62171;-69
2022/09/13 10:48:42;;;;;;;;;;;;;;;22.03;100.00;98556.13;105114;1270;62107;-70
2022/09/13 10:51:29;;;;;;;;;;;;;;;21.90;100.00;98561.85;105139;1270;75169;-70
2022/09/13 10:54:07;;;;;;;;;;;;;;;21.80;100.00;98558.20;105101;1270;69436;-72
2022/09/13 10:56:34;;;;;;;;;;;;;;;21.75;100.00;98555.90;105118;1270;73883;-71
2022/09/13 10:59:35;;;;;;;;;;;;;;;21.72;100.00;98554.07;105050;1270;62099;-70
2022/09/13 11:02:11;;;;;;;;;;;;;;;21.66;100.00;98548.84;104514;1278;62155;-70
2022/09/13 11:05:00;;;;;;;;;;;;;;;21.54;100.00;98547.02;104372;1279;74690;-70
2022/09/13 11:07:26;;;;;;;;;;;;;;;21.46;100.00;98541.30;104535;1278;69181;-70
2022/09/13 11:09:57;;;;;;;;;;;;;;;21.46;100.00;98538.47;104547;1279;62279;-71
2022/09/13 11:12:31;;;;;;;;;;;;;;;21.51;100.00;98534.27;104494;1278;62148;-71
2022/09/13 11:15:14;;;;;;;;;;;;;;;21.51;100.00;98529.39;104536;1278;62546;-71
2022/09/13 11:17:59;;;;;;;;;;;;;;;21.53;100.00;98529.31;104623;1278;76363;-71
2022/09/13 11:20:45;;;;;;;;;;;;;;;21.40;100.00;98526.13;104512;1278;71158;-71
2022/09/13 11:23:27;;;;;;;;;;;;;;;21.36;100.00;98523.10;104587;1277;73515;-71
2022/09/13 11:26:11;;;;;;;;;;;;;;;21.35;100.00;98517.15;104536;1278;62191;-71
2022/09/13 11:28:44;;;;;;;;;;;;;;;21.32;100.00;98516.73;104586;1278;62065;-70
2022/09/13 11:31:28;;;;;;;;;;;;;;;21.30;100.00;98516.83;104514;1278;76319;-70
2022/09/13 11:33:56;;;;;;;;;;;;;;;21.31;100.00;98506.41;104515;1278;69376;-71
2022/09/13 11:36:26;;;;;;;;;;;;;;;21.32;100.00;98505.18;104629;1271;72876;-71
2022/09/13 11:38:52;;;;;;;;;;;;;;;21.19;100.00;98499.91;105123;1270;62190;-71
2022/09/13 11:41:22;;;;;;;;;;;;;;;21.10;100.00;98494.34;105135;1270;62126;-71
2022/09/13 11:44:07;;;;;;;;;;;;;;;21.05;100.00;98492.64;105117;1270;76094;-71
2022/09/13 11:46:51;;;;;;;;;;;;;;;21.20;100.00;98495.96;105148;1270;68386;-71
2022/09/13 11:49:36;;;;;;;;;;;;;;;21.37;100.00;98489.39;105121;1270;74589;-71
2022/09/13 11:52:03;;;;;;;;;;;;;;;21.44;100.00;98484.92;105119;1270;62099;-71
2022/09/13 11:54:38;;;;;;;;;;;;;;;21.48;100.00;98471.72;105019;1270;62089;-70
2022/09/13 11:57:10;;;;;;;;;;;;;;;21.55;100.00;98459.23;105125;1270;75638;-70
2022/09/13 11:59:52;;;;;;;;;;;;;;;21.60;100.00;98459.96;105145;1270;70487;-70
2022/09/13 12:02:28;;;;;;;;;;;;;;;21.62;100.00;98453.45;105110;1270;73279;-70
2022/09/13 12:05:02;;;;;;;;;;;;;;;21.89;100.00;98447.19;105077;1270;62050;-70
2022/09/13 12:07:42;;;;;;;;;;;;;;;22.07;100.00;98445.29;105068;1270;61883;-70
2022/09/13 12:10:28;;;;;;;;;;;;;;;22.27;100.00;98438.13;105108;1270;75898;-70
2022/09/13 12:12:55;;;;;;;;;;;;;;;22.49;100.00;98431.40;105150;1270;71490;-70
2022/09/13 12:15:28;;;;;;;;;;;;;;;22.62;100.00;98432.13;105129;1270;73853;-71
2022/09/13 12:18:01;;;;;;;;;;;;;;;22.67;100.00;98428.09;105082;1270;62135;-71
2022/09/13 12:20:29;;;;;;;;;;;;;;;22.66;100.00;98428.51;105134;1270;62190;-71
2022/09/13 12:22:58;;;;;;;;;;;;;;;22.62;100.00;98427.17;105082;1270;76097;-71
2022/09/13 12:25:26;;;;;;;;;;;;;;;22.52;100.00;98425.66;104977;1271;70391;-70
2022/09/13 12:28:10;;;;;;;;;;;;;;;22.35;100.00;98419.62;105101;1270;74544;-70
2022/09/13 12:30:41;;;;;;;;;;;;;;;22.14;100.00;98416.52;105081;1270;62117;-71
2022/09/13 12:33:07;;;;;;;;;;;;;;;21.96;100.00;98419.31;105079;1270;62133;-71
2022/09/13 12:35:37;;;;;;;;;;;;;;;21.82;100.00;98410.02;105134;1270;62139;-71
2022/09/13 12:38:32;;;;;;;;;;;;;;;21.69;100.00;98412.73;105132;1270;69363;-71
2022/09/13 12:41:07;;;;;;;;;;;;;;;21.56;100.00;98417.98;105090;1270;73325;-71
2022/09/13 12:44:03;;;;;;;;;;;;;;;21.60;100.00;98412.52;105109;1270;62078;-70
2022/09/13 12:46:29;;;;;;;;;;;;;;;21.73;100.00;98408.79;104571;1279;62204;-71
2022/09/13 12:48:54;;;;;;;;;;;;;;;21.78;100.00;98406.31;104489;1277;62320;-71